Terminal Aerodrome Forecast
Issued by NWS Wakefield, VA

Home | Current Version | Previous Version | Text Only | Print | Product List | Glossary On
Versions: 1 2 3 4 5 6 7 8 9 10 11 12 13 14 15 16 17 18 19 20 21 22 23 24 25
733
FTUS41 KAKQ 181759 CCA
TAFSBY
TAF COR
KSBY 181759Z 1818/1918 34011KT P6SM BKN040
     FM182200 VRB03KT P6SM SKC
     FM191200 12005KT P6SM SCT050 BKN150
     FM191500 16009KT P6SM OVC050=

USA.gov is the U.S. government's official web portal to all federal, state and local government web resources and services.